Talkeetna, Talkeetna Airport (PATK)

NameTalkeetna Airport
CityTalkeetna
CountryUnited States
ICAOPATK
IATATKA
Altitude109 m
CoordinatesGoogle Map
Live Air TrafficLiveATC.net
METARPATK 141053Z AUTO 00000KT 10SM CLR 00/M02 A2956 RMK AO2 SLP015 T00001017 TSNO $
2018-11-14 10:53:00 Wind: North (0°) 0 m/s - Visibility: 16093.4 m - Temperature: 0 °C - Dew point: -2 °C - Humidity: 86.6% - Pressure: 1001.02 hPa
Statistics

The table below shows the detailed information of all flights to/from Talkeetna, Talkeetna Airport (PATK).